createdAt,value
2022-09-05T00:00:22.467Z,95632.75
2022-09-05T00:03:08.448Z,95632.50
2022-09-05T00:05:50.989Z,95641.44
2022-09-05T00:09:00.908Z,95632.19
2022-09-05T00:11:58.429Z,95637.28
2022-09-05T00:15:17.055Z,95631.75
2022-09-05T00:18:01.572Z,95628.84
2022-09-05T00:24:26.251Z,95635.81
2022-09-05T00:24:30.777Z,95629.28
2022-09-05T00:27:06.174Z,95631.88
2022-09-05T00:31:52.023Z,95628.97
2022-09-05T00:33:26.017Z,95623.66
2022-09-05T00:36:23.113Z,95625.50
2022-09-05T00:39:02.324Z,95621.00
2022-09-05T00:41:34.310Z,95619.16
2022-09-05T00:44:03.244Z,95619.97
2022-09-05T00:46:38.548Z,95621.34
2022-09-05T00:49:40.496Z,95618.69
2022-09-05T00:52:21.835Z,95623.66
2022-09-05T00:55:45.393Z,95618.56
2022-09-05T00:58:50.444Z,95620.63
2022-09-05T01:01:45.669Z,95620.88
2022-09-05T01:05:03.801Z,95615.31
2022-09-05T01:08:13.372Z,95620.06
2022-09-05T01:11:25.215Z,95617.63
2022-09-05T01:14:30.520Z,95615.78
2022-09-05T01:17:45.713Z,95616.59
2022-09-05T01:20:53.853Z,95615.56
2022-09-05T01:23:50.109Z,95617.19
2022-09-05T01:26:43.298Z,95614.28
2022-09-05T01:29:46.426Z,95633.84
2022-09-05T01:32:24.496Z,95630.72
2022-09-05T01:35:41.628Z,95633.38
2022-09-05T01:39:07.288Z,95636.28
2022-09-05T01:41:49.508Z,95627.69
2022-09-05T01:44:29.696Z,95624.84
2022-09-05T01:47:25.552Z,95619.72
2022-09-05T01:50:25.651Z,95626.91
2022-09-05T01:53:11.207Z,95634.88
2022-09-05T01:56:04.366Z,95624.47
2022-09-05T01:59:00.828Z,95630.00
2022-09-05T02:01:43.281Z,95642.06
2022-09-05T02:04:47.457Z,95640.19
2022-09-05T02:07:37.773Z,95632.47
2022-09-05T02:10:29.737Z,95629.56
2022-09-05T02:13:34.076Z,95629.56
2022-09-05T02:16:28.535Z,95633.25
2022-09-05T02:19:09.428Z,95633.25
2022-09-05T02:21:56.931Z,95630.59
2022-09-05T02:24:35.548Z,95622.03
2022-09-05T02:27:30.173Z,95626.31
2022-09-05T02:30:24.595Z,95621.47
2022-09-05T02:33:04.522Z,95625.75
2022-09-05T02:35:46.009Z,95616.94
2022-09-05T02:45:00.222Z,95623.28
2022-09-05T02:45:07.126Z,95623.78
2022-09-05T02:45:07.127Z,95616.00
2022-09-05T02:47:54.020Z,95618.34
2022-09-05T02:53:59.272Z,95620.41
2022-09-05T02:57:35.916Z,95619.56
2022-09-05T02:57:39.665Z,95622.72
2022-09-05T02:59:52.522Z,95621.31
2022-09-05T03:03:10.040Z,95616.91
2022-09-05T03:06:03.692Z,95623.25
2022-09-05T03:08:42.698Z,95621.19
2022-09-05T03:11:51.473Z,95621.88
2022-09-05T03:14:55.231Z,95623.16
2022-09-05T03:18:20.052Z,95617.13
2022-09-05T03:20:51.577Z,95622.59
2022-09-05T03:23:43.484Z,95629.19
2022-09-05T03:27:20.286Z,95621.88
2022-09-05T03:30:16.215Z,95627.91
2022-09-05T03:33:08.440Z,95624.22
2022-09-05T03:35:54.233Z,95628.69
2022-09-05T03:38:49.243Z,95625.69
2022-09-05T03:42:04.872Z,95626.16
2022-09-05T03:45:05.650Z,95629.00
2022-09-05T03:48:53.730Z,95622.06
2022-09-05T03:57:05.024Z,95626.81
2022-09-05T03:57:17.973Z,95627.25
2022-09-05T03:58:16.459Z,95635.47
2022-09-05T04:02:49.229Z,95629.78
2022-09-05T04:08:14.987Z,95629.19
2022-09-05T04:08:28.656Z,95637.50
2022-09-05T04:10:53.829Z,95629.00
2022-09-05T04:13:52.381Z,95639.19
2022-09-05T04:16:32.079Z,95638.59
2022-09-05T04:19:27.002Z,95633.50
2022-09-05T04:22:27.768Z,95632.91
2022-09-05T04:25:00.353Z,95637.41
2022-09-05T04:27:53.390Z,95635.00
2022-09-05T04:30:45.060Z,95637.06
2022-09-05T04:33:36.422Z,95631.16
2022-09-05T04:36:26.593Z,95635.66
2022-09-05T04:39:18.000Z,95634.81
2022-09-05T04:42:14.207Z,95639.94
2022-09-05T04:45:07.470Z,95635.66
2022-09-05T04:47:40.356Z,95643.75
2022-09-05T04:50:16.205Z,95647.81
2022-09-05T04:53:11.346Z,95648.63
2022-09-05T04:55:55.367Z,95656.00
2022-09-05T05:01:37.946Z,95658.66
2022-09-05T05:06:05.145Z,95660.28
2022-09-05T05:06:12.394Z,95661.31
2022-09-05T05:07:30.065Z,95665.00
2022-09-05T05:10:55.428Z,95666.63
2022-09-05T05:17:59.705Z,95662.34
2022-09-05T05:18:11.156Z,95671.81
2022-09-05T05:19:34.245Z,95675.25
2022-09-05T05:22:04.894Z,95677.50
2022-09-05T05:24:45.823Z,95681.31
2022-09-05T05:27:15.876Z,95677.41
2022-09-05T05:30:06.787Z,95676.38
2022-09-05T05:32:46.401Z,95687.59
2022-09-05T05:35:31.448Z,95685.31
2022-09-05T05:38:48.132Z,95691.19
2022-09-05T05:41:39.289Z,95690.38
2022-09-05T05:44:16.448Z,95692.38
2022-09-05T05:47:14.501Z,95686.00
2022-09-05T05:50:52.716Z,95691.56
2022-09-05T05:54:07.734Z,95700.91
2022-09-05T05:56:59.444Z,95688.47
2022-09-05T06:00:15.623Z,95686.59
2022-09-05T06:03:25.852Z,95693.31
2022-09-05T06:06:38.703Z,95693.13
2022-09-05T06:14:52.326Z,95687.94
2022-09-05T06:15:06.398Z,95694.41
2022-09-05T06:16:31.780Z,95691.31
2022-09-05T06:20:31.498Z,95697.00
2022-09-05T06:22:59.577Z,95698.41
2022-09-05T06:26:02.726Z,95694.25
2022-09-05T06:29:00.284Z,95695.44
2022-09-05T06:32:27.480Z,95697.44
2022-09-05T06:35:53.383Z,95701.03
2022-09-05T06:38:38.228Z,95706.28
2022-09-05T06:41:20.834Z,95700.06
2022-09-05T06:44:16.937Z,95706.31
2022-09-05T06:47:07.757Z,95709.91
2022-09-05T06:49:48.931Z,95715.94
2022-09-05T06:53:30.094Z,95716.31
2022-09-05T06:56:03.105Z,95700.47
2022-09-05T06:59:17.253Z,95705.09
2022-09-05T07:02:01.747Z,95718.09
2022-09-05T07:05:24.798Z,95719.84
2022-09-05T07:07:29.024Z,95724.44
2022-09-05T07:10:21.943Z,95725.16
2022-09-05T07:12:53.668Z,95718.34
2022-09-05T07:15:58.244Z,95721.94
2022-09-05T07:18:59.118Z,95734.13
2022-09-05T07:21:44.265Z,95733.22
2022-09-05T07:24:32.624Z,95728.78
2022-09-05T07:27:09.139Z,95732.16
2022-09-05T07:29:52.427Z,95730.44
2022-09-05T07:32:32.932Z,95733.19
2022-09-05T07:35:03.636Z,95738.31
2022-09-05T07:37:42.021Z,95740.25
2022-09-05T07:40:26.022Z,95736.09
2022-09-05T07:43:18.905Z,95744.56
2022-09-05T07:46:11.402Z,95745.47
2022-09-05T07:49:04.388Z,95746.16
2022-09-05T07:56:46.407Z,95742.31
2022-09-05T07:57:06.273Z,95745.88
2022-09-05T07:57:51.396Z,95747.06
2022-09-05T08:00:27.002Z,95747.19
2022-09-05T08:03:01.449Z,95741.94
2022-09-05T08:05:44.987Z,95741.00
2022-09-05T08:08:20.160Z,95743.78
2022-09-05T08:11:25.521Z,95748.28
2022-09-05T08:14:02.377Z,95738.84
2022-09-05T08:16:43.150Z,95739.28
2022-09-05T08:19:39.862Z,95725.78
2022-09-05T08:22:13.782Z,95730.03
2022-09-05T08:25:04.735Z,95730.69
2022-09-05T08:28:03.380Z,95731.56
2022-09-05T08:30:47.048Z,95734.13
2022-09-05T08:33:25.158Z,95731.78
2022-09-05T08:36:29.259Z,95735.03
2022-09-05T08:39:00.001Z,95736.16
2022-09-05T08:41:49.209Z,95733.81
2022-09-05T08:46:42.599Z,95738.66
2022-09-05T08:48:26.915Z,95732.25
2022-09-05T08:51:30.632Z,95731.28
2022-09-05T08:54:21.905Z,95726.06
2022-09-05T08:57:04.212Z,95733.31
2022-09-05T09:00:18.992Z,95731.22
2022-09-05T09:03:25.741Z,95736.81
2022-09-05T09:06:13.435Z,95725.63
2022-09-05T09:09:13.875Z,95725.16
2022-09-05T09:11:59.081Z,95728.69
2022-09-05T09:14:57.745Z,95727.97
2022-09-05T09:17:43.522Z,95717.13
2022-09-05T09:20:45.083Z,95711.91
2022-09-05T09:23:32.031Z,95719.84
2022-09-05T09:26:18.692Z,95712.78
2022-09-05T09:29:07.014Z,95716.13
2022-09-05T09:31:45.944Z,95720.53
2022-09-05T09:34:21.963Z,95720.13
2022-09-05T09:37:50.656Z,95716.97
2022-09-05T09:41:01.128Z,95709.56
2022-09-05T09:44:05.398Z,95708.06
2022-09-05T09:46:47.788Z,95705.34
2022-09-05T09:49:55.122Z,95704.44
2022-09-05T09:52:36.859Z,95697.09
2022-09-05T09:55:30.820Z,95689.19
2022-09-05T09:58:32.127Z,95681.78
2022-09-05T10:03:59.706Z,95672.84
2022-09-05T10:10:50.463Z,95674.13
2022-09-05T10:10:54.450Z,95670.00
2022-09-05T10:13:08.107Z,95682.81
2022-09-05T10:16:37.495Z,95688.50
2022-09-05T10:22:52.338Z,95679.69
2022-09-05T10:26:01.542Z,95685.34
2022-09-05T10:29:35.143Z,95684.00
2022-09-05T10:35:11.087Z,95679.19
2022-09-05T10:35:24.799Z,95683.75
2022-09-05T10:38:10.219Z,95679.47
2022-09-05T10:41:14.581Z,95676.78
2022-09-05T10:43:34.199Z,95669.53
2022-09-05T10:46:49.522Z,95673.84
2022-09-05T10:49:22.305Z,95671.47
2022-09-05T10:52:05.410Z,95672.56
2022-09-05T10:55:14.296Z,95663.41
2022-09-05T10:58:30.422Z,95665.28
2022-09-05T11:02:27.234Z,95667.72
2022-09-05T11:05:04.100Z,95662.06
2022-09-05T11:08:01.913Z,95663.69
2022-09-05T11:10:39.429Z,95652.66
2022-09-05T11:13:50.121Z,95652.41
2022-09-05T11:16:35.101Z,95649.97
2022-09-05T11:19:13.616Z,95645.66
2022-09-05T11:22:22.805Z,95641.88
2022-09-05T11:25:01.233Z,95636.47
2022-09-05T11:27:47.308Z,95639.66
2022-09-05T11:30:29.991Z,95635.81
2022-09-05T11:39:46.458Z,95637.66
2022-09-05T11:39:50.312Z,95632.50
2022-09-05T11:39:59.338Z,95641.63
2022-09-05T11:42:40.643Z,95635.13
2022-09-05T11:45:35.364Z,95639.88
2022-09-05T11:48:47.919Z,95634.94
2022-09-05T11:51:35.371Z,95631.91
2022-09-05T11:55:21.442Z,95636.16
2022-09-05T11:58:43.777Z,95629.69
2022-09-05T12:01:36.777Z,95634.78
2022-09-05T12:05:49.293Z,95637.78
2022-09-05T12:08:08.580Z,95636.16
2022-09-05T12:10:48.930Z,95630.25
2022-09-05T12:13:35.359Z,95624.31
2022-09-05T12:16:38.947Z,95625.53
2022-09-05T12:19:42.125Z,95624.25
2022-09-05T12:22:28.524Z,95614.31
2022-09-05T12:26:00.503Z,95616.47
2022-09-05T12:29:27.198Z,95616.31
2022-09-05T12:32:30.887Z,95611.91
2022-09-05T12:36:12.398Z,95607.44
2022-09-05T12:40:55.325Z,95603.38
2022-09-05T12:41:44.181Z,95596.25
2022-09-05T12:44:38.705Z,95596.38
2022-09-05T12:47:16.813Z,95594.44
2022-09-05T12:50:14.965Z,95586.41
2022-09-05T12:52:47.007Z,95589.72
2022-09-05T12:55:17.190Z,95582.75
2022-09-05T13:02:02.888Z,95582.91
2022-09-05T13:03:08.336Z,95570.81
2022-09-05T13:04:05.788Z,95570.81
2022-09-05T13:06:46.457Z,95566.59
2022-09-05T13:09:16.651Z,95568.47
2022-09-05T13:14:58.076Z,95570.66
2022-09-05T13:15:22.843Z,95564.19
2022-09-05T13:17:59.199Z,95566.53
2022-09-05T13:20:36.804Z,95560.53
2022-09-05T13:23:39.299Z,95550.66
2022-09-05T13:26:33.946Z,95554.63
2022-09-05T13:29:15.153Z,95550.84
2022-09-05T13:38:02.724Z,95547.41
2022-09-05T13:38:14.306Z,95544.31
2022-09-05T13:38:17.982Z,95556.97
2022-09-05T13:40:40.712Z,95545.69
2022-09-05T13:43:36.533Z,95544.31
2022-09-05T13:46:21.534Z,95538.03
2022-09-05T13:49:32.061Z,95535.84
2022-09-05T13:52:28.078Z,95537.75
2022-09-05T13:55:30.197Z,95532.25
2022-09-05T13:58:07.691Z,95527.13
2022-09-05T14:00:40.251Z,95533.41
2022-09-05T14:03:31.465Z,95534.56
2022-09-05T14:06:47.238Z,95528.44
2022-09-05T14:09:49.244Z,95529.00
2022-09-05T14:12:52.807Z,95521.69
2022-09-05T14:16:01.193Z,95527.16
2022-09-05T14:19:04.416Z,95521.09
2022-09-05T14:21:37.861Z,95524.25
2022-09-05T14:24:27.776Z,95518.03
2022-09-05T14:27:03.024Z,95521.44
2022-09-05T14:29:40.830Z,95515.00
2022-09-05T14:37:44.561Z,95518.81
2022-09-05T14:37:45.117Z,95518.63
2022-09-05T14:38:38.972Z,95524.53
2022-09-05T14:41:33.237Z,95524.41
2022-09-05T14:44:22.833Z,95523.28
2022-09-05T14:47:06.301Z,95525.63
2022-09-05T14:50:09.607Z,95515.84
2022-09-05T14:52:43.722Z,95516.22
2022-09-05T15:02:45.491Z,95516.50
2022-09-05T15:02:58.397Z,95516.00
2022-09-05T15:06:36.915Z,95502.16
2022-09-05T15:12:20.726Z,95501.66
2022-09-05T15:12:22.077Z,95487.56
2022-09-05T15:15:25.875Z,95492.63
2022-09-05T15:18:01.378Z,95496.31
2022-09-05T15:20:36.219Z,95488.00
2022-09-05T15:23:16.092Z,95492.50
2022-09-05T15:26:18.231Z,95490.84
2022-09-05T15:29:13.726Z,95488.69
2022-09-05T15:31:41.971Z,95488.91
2022-09-05T15:34:26.544Z,95493.50
2022-09-05T15:36:56.494Z,95488.41
2022-09-05T15:39:43.791Z,95496.53
2022-09-05T15:42:22.721Z,95489.41
2022-09-05T15:45:09.223Z,95487.63
2022-09-05T15:47:39.649Z,95492.28
2022-09-05T15:50:21.772Z,95487.16
2022-09-05T15:52:54.894Z,95487.25
2022-09-05T15:55:27.721Z,95489.47
2022-09-05T15:58:03.098Z,95476.03
2022-09-05T16:00:33.392Z,95483.13
2022-09-05T16:05:49.318Z,95472.84
2022-09-05T16:10:43.467Z,95479.13
2022-09-05T16:10:50.570Z,95472.44
2022-09-05T16:12:33.090Z,95470.16
2022-09-05T16:15:55.245Z,95472.28
2022-09-05T16:23:12.137Z,95464.13
2022-09-05T16:23:29.522Z,95467.28
2022-09-05T16:24:27.109Z,95466.91
2022-09-05T16:27:10.136Z,95469.72
2022-09-05T16:29:46.213Z,95473.69
2022-09-05T16:32:28.613Z,95471.50
2022-09-05T16:35:10.617Z,95470.41
2022-09-05T16:38:08.771Z,95470.22
2022-09-05T16:40:47.292Z,95467.75
2022-09-05T16:43:20.444Z,95472.47
2022-09-05T16:46:15.293Z,95462.88
2022-09-05T16:49:11.657Z,95470.19
2022-09-05T16:51:50.106Z,95473.44
2022-09-05T16:54:31.980Z,95472.75
2022-09-05T16:57:12.080Z,95473.91
2022-09-05T16:59:43.514Z,95476.16
2022-09-05T17:02:41.748Z,95476.03
2022-09-05T17:05:12.545Z,95482.47
2022-09-05T17:08:09.520Z,95476.22
2022-09-05T17:10:57.271Z,95481.16
2022-09-05T17:13:48.956Z,95485.56
2022-09-05T17:16:36.178Z,95482.06
2022-09-05T17:19:03.965Z,95478.50
2022-09-05T17:25:58.558Z,95477.56
2022-09-05T17:29:25.637Z,95482.28
2022-09-05T17:29:32.173Z,95477.84
2022-09-05T17:33:02.081Z,95479.63
2022-09-05T17:36:01.420Z,95488.84
2022-09-05T17:38:50.378Z,95492.03
2022-09-05T17:41:51.229Z,95489.16
2022-09-05T17:45:08.546Z,95493.97
2022-09-05T17:47:57.560Z,95491.56
2022-09-05T17:50:28.209Z,95493.94
2022-09-05T17:53:25.705Z,95498.19
2022-09-05T17:55:54.739Z,95499.50
2022-09-05T17:58:49.919Z,95495.97
2022-09-05T18:01:19.105Z,95502.84
2022-09-05T18:03:48.804Z,95499.59
2022-09-05T18:06:16.370Z,95504.34
2022-09-05T18:08:46.359Z,95509.13
2022-09-05T18:11:25.254Z,95507.69
2022-09-05T18:14:01.448Z,95512.44
2022-09-05T18:17:37.802Z,95508.09
2022-09-05T18:20:00.307Z,95508.19
2022-09-05T18:22:41.156Z,95513.44
2022-09-05T18:25:30.547Z,95521.16
2022-09-05T18:28:34.720Z,95523.19
2022-09-05T18:31:43.656Z,95528.09
2022-09-05T18:34:21.435Z,95518.69
2022-09-05T18:36:58.592Z,95521.25
2022-09-05T18:39:37.833Z,95517.69
2022-09-05T18:42:33.531Z,95514.91
2022-09-05T18:45:16.463Z,95523.38
2022-09-05T18:47:59.137Z,95520.31
2022-09-05T18:50:32.865Z,95517.84
2022-09-05T18:53:10.599Z,95524.97
2022-09-05T18:56:14.148Z,95524.06
2022-09-05T18:59:16.582Z,95534.03
2022-09-05T19:02:00.723Z,95529.94
2022-09-05T19:04:53.312Z,95525.25
2022-09-05T19:07:48.249Z,95529.94
2022-09-05T19:10:34.368Z,95530.66
2022-09-05T19:13:31.839Z,95524.16
2022-09-05T19:16:42.119Z,95529.66
2022-09-05T19:19:18.494Z,95525.53
2022-09-05T19:21:59.793Z,95531.59
2022-09-05T19:24:45.427Z,95526.19
2022-09-05T19:30:28.395Z,95531.19
2022-09-05T19:36:50.378Z,95525.94
2022-09-05T19:36:51.631Z,95525.78
2022-09-05T19:36:53.900Z,95519.16
2022-09-05T19:40:46.692Z,95517.22
2022-09-05T19:47:43.032Z,95522.56
2022-09-05T19:47:50.129Z,95520.84
2022-09-05T19:50:27.018Z,95518.13
2022-09-05T19:53:06.359Z,95523.91
2022-09-05T19:55:37.972Z,95519.88
2022-09-05T19:58:19.912Z,95509.94
2022-09-05T20:01:05.768Z,95508.56
2022-09-05T20:03:38.972Z,95514.38
2022-09-05T20:09:22.028Z,95507.81
2022-09-05T20:12:00.359Z,95509.88
2022-09-05T20:14:31.135Z,95508.75
2022-09-05T20:17:17.797Z,95510.84
2022-09-05T20:19:45.684Z,95509.47
2022-09-05T20:22:47.347Z,95505.44
2022-09-05T20:25:35.834Z,95501.88
2022-09-05T20:28:13.842Z,95505.78
2022-09-05T20:30:45.467Z,95499.91
2022-09-05T20:33:42.061Z,95500.03
2022-09-05T20:43:10.320Z,95499.72
2022-09-05T20:43:23.465Z,95507.59
2022-09-05T20:43:32.088Z,95496.25
2022-09-05T20:44:51.156Z,95498.56
2022-09-05T20:54:04.395Z,95492.56
2022-09-05T20:54:10.404Z,95487.38
2022-09-05T20:54:17.611Z,95486.22
2022-09-05T20:56:32.490Z,95482.66
2022-09-05T20:59:00.849Z,95489.28
2022-09-05T21:01:32.358Z,95481.75
2022-09-05T21:04:06.001Z,95482.44
2022-09-05T21:06:37.684Z,95473.31
2022-09-05T21:09:24.591Z,95473.22
2022-09-05T21:11:54.750Z,95466.72
2022-09-05T21:14:24.715Z,95463.72
2022-09-05T21:17:15.761Z,95457.03
2022-09-05T21:19:53.985Z,95462.00
2022-09-05T21:22:23.023Z,95454.69
2022-09-05T21:25:10.088Z,95465.47
2022-09-05T21:27:37.604Z,95466.50
2022-09-05T21:30:31.287Z,95468.22
2022-09-05T21:33:18.510Z,95468.38
2022-09-05T21:35:51.382Z,95459.81
2022-09-05T21:38:31.098Z,95464.56
2022-09-05T21:41:05.180Z,95462.31
2022-09-05T21:47:39.101Z,95457.44
2022-09-05T21:47:47.405Z,95460.00
2022-09-05T21:49:10.741Z,95463.81
2022-09-05T21:51:38.635Z,95467.25
2022-09-05T21:59:13.403Z,95467.16
2022-09-05T21:59:19.176Z,95455.59
2022-09-05T21:59:55.514Z,95451.34
2022-09-05T22:02:28.655Z,95446.13
2022-09-05T22:05:03.156Z,95450.63
2022-09-05T22:07:35.808Z,95450.28
2022-09-05T22:10:06.029Z,95441.94
2022-09-05T22:12:35.930Z,95448.53
2022-09-05T22:15:26.282Z,95443.66
2022-09-05T22:18:06.355Z,95442.50
2022-09-05T22:20:44.363Z,95436.59
2022-09-05T22:23:11.910Z,95435.47
2022-09-05T22:25:39.539Z,95439.16
2022-09-05T22:28:33.668Z,95444.09
2022-09-05T22:31:07.382Z,95435.53
2022-09-05T22:33:36.056Z,95440.25
2022-09-05T22:36:04.141Z,95433.56
2022-09-05T22:38:32.572Z,95435.06
2022-09-05T22:40:59.587Z,95433.06
2022-09-05T22:43:27.221Z,95430.91
2022-09-05T22:45:57.810Z,95431.34
2022-09-05T22:48:25.079Z,95424.88
2022-09-05T22:50:52.356Z,95423.69
2022-09-05T22:53:19.899Z,95435.56
2022-09-05T22:55:47.266Z,95439.69
2022-09-05T22:58:15.427Z,95443.78
2022-09-05T23:00:44.404Z,95442.03
2022-09-05T23:03:11.490Z,95444.94
2022-09-05T23:05:38.478Z,95448.03
2022-09-05T23:08:06.583Z,95442.38
2022-09-05T23:10:36.006Z,95451.00
2022-09-05T23:13:09.798Z,95443.47
2022-09-05T23:15:38.588Z,95446.59
2022-09-05T23:18:06.112Z,95441.72
2022-09-05T23:20:34.194Z,95440.56
2022-09-05T23:23:06.888Z,95442.59
2022-09-05T23:25:36.282Z,95437.75
2022-09-05T23:28:10.376Z,95438.19
2022-09-05T23:30:38.796Z,95438.41
2022-09-05T23:33:09.315Z,95429.28
2022-09-05T23:35:37.432Z,95433.53
2022-09-05T23:38:12.438Z,95425.03
2022-09-05T23:40:39.779Z,95428.09
2022-09-05T23:43:07.804Z,95428.91
2022-09-05T23:45:34.864Z,95424.66
2022-09-05T23:48:02.577Z,95421.41
2022-09-05T23:50:29.736Z,95421.41
2022-09-05T23:52:56.745Z,95420.00
2022-09-05T23:55:24.446Z,95417.13
2022-09-05T23:58:00.577Z,95412.25
